createdAt,value
2023-01-19T00:01:33.114Z,59.47
2023-01-19T00:04:00.976Z,60.53
2023-01-19T00:06:28.955Z,63.37
2023-01-19T00:08:56.777Z,64.43
2023-01-19T00:11:24.613Z,61.88
2023-01-19T00:13:53.612Z,57.10
2023-01-19T00:16:23.288Z,54.83
2023-01-19T00:18:51.972Z,56.00
2023-01-19T00:21:21.663Z,58.12
2023-01-19T00:23:52.654Z,58.98
2023-01-19T00:26:22.158Z,61.49
2023-01-19T00:28:50.668Z,65.90
2023-01-19T00:31:20.729Z,64.79
2023-01-19T00:33:49.377Z,58.40
2023-01-19T00:36:17.241Z,56.09
2023-01-19T00:38:45.061Z,55.91
2023-01-19T00:41:12.857Z,58.39
2023-01-19T00:43:41.049Z,60.45
2023-01-19T00:46:09.188Z,63.29
2023-01-19T00:48:37.017Z,62.48
2023-01-19T00:51:04.963Z,57.12
2023-01-19T00:53:32.877Z,56.29
2023-01-19T00:56:00.697Z,58.90
2023-01-19T00:58:28.542Z,60.29
2023-01-19T01:01:03.590Z,62.56
2023-01-19T01:03:32.523Z,64.48
2023-01-19T01:06:00.301Z,62.48
2023-01-19T01:08:28.351Z,56.12
2023-01-19T01:10:56.635Z,55.07
2023-01-19T01:13:27.243Z,56.16
2023-01-19T01:15:56.140Z,58.62
2023-01-19T01:18:24.947Z,61.02
2023-01-19T01:20:54.574Z,62.84
2023-01-19T01:23:23.874Z,65.59
2023-01-19T01:25:51.725Z,61.13
2023-01-19T01:28:19.533Z,55.50
2023-01-19T01:30:47.595Z,54.16
2023-01-19T01:33:15.402Z,55.36
2023-01-19T01:36:03.353Z,57.15
2023-01-19T01:38:31.095Z,58.98
2023-01-19T01:40:58.775Z,61.08
2023-01-19T01:44:04.698Z,64.91
2023-01-19T01:46:32.426Z,64.29
2023-01-19T01:49:07.297Z,56.68
2023-01-19T01:51:41.070Z,54.70
2023-01-19T01:54:22.147Z,56.25
2023-01-19T01:56:52.258Z,56.34
2023-01-19T01:59:29.837Z,57.59
2023-01-19T02:02:19.157Z,58.47
2023-01-19T02:04:50.543Z,59.78
2023-01-19T02:07:45.245Z,60.38
2023-01-19T02:10:31.806Z,63.95
2023-01-19T02:13:18.693Z,64.51
2023-01-19T02:15:52.721Z,60.00
2023-01-19T02:18:22.526Z,53.43
2023-01-19T02:21:07.608Z,54.01
2023-01-19T02:23:46.686Z,54.71
2023-01-19T02:26:18.792Z,55.85
2023-01-19T02:28:50.574Z,58.24
2023-01-19T02:31:19.423Z,59.73
2023-01-19T02:33:47.784Z,61.81
2023-01-19T02:36:16.982Z,66.80
2023-01-19T02:38:46.047Z,63.74
2023-01-19T02:41:17.234Z,58.00
2023-01-19T02:43:45.964Z,52.80
2023-01-19T02:46:15.620Z,52.89
2023-01-19T02:48:44.028Z,56.06
2023-01-19T02:51:15.510Z,57.39
2023-01-19T02:53:47.579Z,60.76
2023-01-19T02:56:46.651Z,61.61
2023-01-19T02:59:43.156Z,65.83
2023-01-19T03:02:41.261Z,63.37
2023-01-19T03:05:41.810Z,57.70
2023-01-19T03:08:24.744Z,56.56
2023-01-19T03:11:02.603Z,58.14
2023-01-19T03:13:34.507Z,60.14
2023-01-19T03:16:12.044Z,60.83
2023-01-19T03:18:42.727Z,64.58
2023-01-19T03:21:10.869Z,67.09
2023-01-19T03:23:41.770Z,64.57
2023-01-19T03:26:11.560Z,59.37
2023-01-19T03:28:40.809Z,54.14
2023-01-19T03:35:32.118Z,57.35
2023-01-19T03:38:01.183Z,59.38
2023-01-19T03:40:30.674Z,59.99
2023-01-19T03:43:00.669Z,60.64
2023-01-19T03:45:30.898Z,65.13
2023-01-19T03:47:58.925Z,66.51
2023-01-19T03:50:29.610Z,63.37
2023-01-19T03:53:12.427Z,58.28
2023-01-19T03:55:42.449Z,55.16
2023-01-19T03:58:10.794Z,55.83
2023-01-19T04:00:39.007Z,57.47
2023-01-19T04:03:10.905Z,59.90
2023-01-19T04:05:39.561Z,63.75
2023-01-19T04:08:07.633Z,64.93
2023-01-19T04:10:36.799Z,62.09
2023-01-19T04:13:04.869Z,57.52
2023-01-19T04:15:33.289Z,55.71
2023-01-19T04:18:01.259Z,57.14
2023-01-19T04:20:29.550Z,58.34
2023-01-19T04:23:01.534Z,59.87
2023-01-19T04:25:29.689Z,61.69
2023-01-19T04:28:00.130Z,66.36
2023-01-19T04:30:28.167Z,65.41
2023-01-19T04:32:56.292Z,63.19
2023-01-19T04:35:24.124Z,59.77
2023-01-19T04:37:51.884Z,55.57
2023-01-19T04:40:19.705Z,54.81
2023-01-19T04:42:47.547Z,56.31
2023-01-19T04:45:15.420Z,58.47
2023-01-19T04:47:43.239Z,59.20
2023-01-19T04:50:11.730Z,61.30
2023-01-19T04:52:39.658Z,64.56
2023-01-19T04:55:08.174Z,66.01
2023-01-19T04:57:36.094Z,60.82
2023-01-19T05:00:06.681Z,56.50
2023-01-19T05:02:35.063Z,54.70
2023-01-19T05:05:03.633Z,56.73
2023-01-19T05:07:31.475Z,58.57
2023-01-19T05:09:59.315Z,59.51
2023-01-19T05:12:27.544Z,61.56
2023-01-19T05:14:55.283Z,64.66
2023-01-19T05:17:23.270Z,65.00
2023-01-19T05:19:51.390Z,62.27
2023-01-19T05:22:19.164Z,57.94
2023-01-19T05:24:46.919Z,54.65
2023-01-19T05:27:14.730Z,55.34
2023-01-19T05:29:42.479Z,56.62
2023-01-19T05:32:10.360Z,58.94
2023-01-19T05:34:38.250Z,59.56
2023-01-19T05:37:06.070Z,59.87
2023-01-19T05:39:34.133Z,60.66
2023-01-19T05:42:01.925Z,61.45
2023-01-19T05:44:29.746Z,65.17
2023-01-19T05:46:57.725Z,67.06
2023-01-19T05:49:25.726Z,62.57
2023-01-19T05:51:53.563Z,56.82
2023-01-19T05:54:21.607Z,55.22
2023-01-19T05:56:49.346Z,56.70
2023-01-19T05:59:23.923Z,59.14
2023-01-19T06:01:52.509Z,61.08
2023-01-19T06:04:20.437Z,64.16
2023-01-19T06:06:49.182Z,63.59
2023-01-19T06:09:17.788Z,62.27
2023-01-19T06:11:46.199Z,59.98
2023-01-19T06:14:14.020Z,55.82
2023-01-19T06:16:42.061Z,54.87
2023-01-19T06:19:09.931Z,56.97
2023-01-19T06:21:37.768Z,58.26
2023-01-19T06:24:05.960Z,59.46
2023-01-19T06:26:33.715Z,63.46
2023-01-19T06:29:01.571Z,66.52
2023-01-19T06:31:29.369Z,63.73
2023-01-19T06:33:57.246Z,57.59
2023-01-19T06:36:25.241Z,55.42
2023-01-19T06:38:52.988Z,57.40
2023-01-19T06:41:20.801Z,58.46
2023-01-19T06:43:48.673Z,59.61
2023-01-19T06:46:16.531Z,61.05
2023-01-19T06:48:44.309Z,65.07
2023-01-19T06:51:12.286Z,66.70
2023-01-19T06:53:40.059Z,61.19
2023-01-19T06:56:09.685Z,55.28
2023-01-19T06:58:37.925Z,53.49
2023-01-19T07:01:06.895Z,55.29
2023-01-19T07:03:35.954Z,56.86
2023-01-19T07:06:06.607Z,59.30
2023-01-19T07:08:38.256Z,59.93
2023-01-19T07:11:22.167Z,61.09
2023-01-19T07:13:55.757Z,61.26
2023-01-19T07:16:24.232Z,67.13
2023-01-19T07:18:52.099Z,63.91
2023-01-19T07:21:19.896Z,62.07
2023-01-19T07:23:51.696Z,55.90
2023-01-19T07:26:21.551Z,53.07
2023-01-19T07:28:49.739Z,54.77
2023-01-19T07:31:18.242Z,55.08
2023-01-19T07:33:46.828Z,57.48
2023-01-19T07:36:15.017Z,59.14
2023-01-19T07:38:42.836Z,59.11
2023-01-19T07:41:10.706Z,60.96
2023-01-19T07:43:38.594Z,64.79
2023-01-19T07:46:08.182Z,63.49
2023-01-19T07:48:36.286Z,58.17
2023-01-19T07:51:05.824Z,54.78
2023-01-19T07:53:33.980Z,55.45
2023-01-19T07:56:01.811Z,56.19
2023-01-19T07:58:30.032Z,56.98
2023-01-19T08:00:57.974Z,57.67
2023-01-19T08:03:25.845Z,60.00
2023-01-19T08:05:54.383Z,59.51
2023-01-19T08:08:22.127Z,62.96
2023-01-19T08:10:51.007Z,65.33
2023-01-19T08:13:19.112Z,61.89
2023-01-19T08:15:51.613Z,57.13
2023-01-19T08:18:20.207Z,54.92
2023-01-19T08:20:48.247Z,55.32
2023-01-19T08:23:18.048Z,56.21
2023-01-19T08:25:46.183Z,56.59
2023-01-19T08:28:15.795Z,57.23
2023-01-19T08:30:44.926Z,57.97
2023-01-19T08:33:13.746Z,58.06
2023-01-19T08:35:48.858Z,58.52
2023-01-19T08:38:17.128Z,58.75
2023-01-19T08:40:46.317Z,59.20
2023-01-19T08:43:15.967Z,59.02
2023-01-19T08:45:48.782Z,58.95
2023-01-19T08:48:18.105Z,59.23
2023-01-19T08:50:46.783Z,59.39
2023-01-19T08:53:15.473Z,59.10
2023-01-19T08:55:43.346Z,58.35
2023-01-19T08:58:11.114Z,58.15
2023-01-19T14:02:39.950Z,34.73
2023-01-19T14:05:25.566Z,34.82
2023-01-19T14:08:04.100Z,35.03
2023-01-19T14:10:32.898Z,35.11
2023-01-19T14:13:02.804Z,35.79
2023-01-19T14:15:33.415Z,35.56
2023-01-19T14:18:09.637Z,36.22
2023-01-19T14:20:37.769Z,37.11
2023-01-19T14:23:07.249Z,36.73
2023-01-19T14:25:36.523Z,37.38
2023-01-19T14:28:27.734Z,37.51
2023-01-19T14:30:55.528Z,38.24
2023-01-19T14:33:33.623Z,38.60
2023-01-19T14:36:34.863Z,38.91
2023-01-19T14:39:03.640Z,38.69
2023-01-19T14:41:47.987Z,39.52
2023-01-19T14:44:20.973Z,39.84
2023-01-19T14:46:48.965Z,39.98
2023-01-19T14:49:30.283Z,40.38
2023-01-19T14:51:58.681Z,40.58
2023-01-19T14:54:38.471Z,41.28
2023-01-19T14:57:11.584Z,41.99
2023-01-19T14:59:40.173Z,42.64
2023-01-19T15:02:12.494Z,43.31
2023-01-19T15:04:40.765Z,43.46
2023-01-19T15:07:17.183Z,43.96
2023-01-19T15:09:46.691Z,44.58
2023-01-19T15:12:17.534Z,44.88
2023-01-19T15:14:46.820Z,45.40
2023-01-19T15:17:17.061Z,45.74
2023-01-19T15:19:44.833Z,45.90
2023-01-19T15:22:13.566Z,46.30
2023-01-19T15:24:42.087Z,46.67
2023-01-19T15:27:12.183Z,47.14
2023-01-19T15:29:40.506Z,47.38
2023-01-19T15:32:13.198Z,47.79
2023-01-19T15:34:42.389Z,47.89
2023-01-19T15:37:10.245Z,49.57
2023-01-19T15:39:38.151Z,48.91
2023-01-19T15:42:10.763Z,49.40
2023-01-19T15:44:38.536Z,49.73
2023-01-19T15:47:06.279Z,50.11
2023-01-19T15:49:34.096Z,50.72
2023-01-19T15:52:01.896Z,50.99
2023-01-19T15:54:29.769Z,51.06
2023-01-19T15:56:57.762Z,51.27
2023-01-19T15:59:26.179Z,52.07
2023-01-19T16:01:54.246Z,52.32
2023-01-19T16:04:22.175Z,52.50
2023-01-19T16:06:50.252Z,52.60
2023-01-19T16:09:20.025Z,52.87
2023-01-19T16:11:47.837Z,53.45
2023-01-19T16:14:17.496Z,53.70
2023-01-19T16:16:48.739Z,54.11
2023-01-19T16:19:16.573Z,54.33
2023-01-19T16:21:44.284Z,54.32
2023-01-19T16:24:12.101Z,54.48
2023-01-19T16:26:39.876Z,54.65
2023-01-19T16:29:09.795Z,54.63
2023-01-19T16:31:38.675Z,54.73
2023-01-19T16:34:06.992Z,54.68
2023-01-19T16:36:36.630Z,54.89
2023-01-19T16:39:07.072Z,55.15
2023-01-19T16:41:35.619Z,55.95
2023-01-19T16:44:04.008Z,56.50
2023-01-19T16:46:38.211Z,56.80
2023-01-19T16:49:11.318Z,57.36
2023-01-19T16:51:39.446Z,57.40
2023-01-19T16:54:07.790Z,57.61
2023-01-19T16:56:35.660Z,57.41
2023-01-19T16:59:03.633Z,57.59
2023-01-19T17:01:31.727Z,57.37
2023-01-19T17:03:59.907Z,57.57
2023-01-19T17:06:29.553Z,57.53
2023-01-19T17:08:57.796Z,58.34
2023-01-19T17:11:28.451Z,58.84
2023-01-19T17:14:01.711Z,58.94
2023-01-19T17:16:31.263Z,59.03
2023-01-19T17:19:00.562Z,59.16
2023-01-19T17:21:29.268Z,59.07
2023-01-19T17:23:57.967Z,58.94
2023-01-19T17:26:28.444Z,58.93
2023-01-19T17:29:05.311Z,59.00
2023-01-19T17:31:34.128Z,59.40
2023-01-19T17:34:03.422Z,59.64
2023-01-19T17:36:32.652Z,59.90
2023-01-19T17:39:04.566Z,60.30
2023-01-19T17:41:35.158Z,60.25
2023-01-19T17:44:05.221Z,60.09
2023-01-19T17:46:36.418Z,59.79
2023-01-19T17:49:06.301Z,59.87
2023-01-19T17:51:34.542Z,59.71
2023-01-19T17:54:04.083Z,59.37
2023-01-19T17:56:36.909Z,59.33
2023-01-19T17:59:07.610Z,59.32
2023-01-19T18:01:39.763Z,59.98
2023-01-19T18:04:08.123Z,60.68
2023-01-19T18:06:37.113Z,60.99
2023-01-19T18:09:07.371Z,61.49
2023-01-19T18:11:35.486Z,61.71
2023-01-19T18:14:03.633Z,61.31
2023-01-19T18:16:32.567Z,61.21
2023-01-19T18:19:00.875Z,60.89
2023-01-19T18:21:30.393Z,61.12
2023-01-19T18:24:01.179Z,61.13
2023-01-19T18:26:30.469Z,61.31
2023-01-19T18:28:58.959Z,61.40
2023-01-19T18:31:27.375Z,61.39
2023-01-19T18:33:55.247Z,61.33
2023-01-19T18:36:23.390Z,61.27
2023-01-19T18:38:51.569Z,61.26
2023-01-19T18:41:21.295Z,61.14
2023-01-19T18:43:49.605Z,61.09
2023-01-19T18:46:18.968Z,60.78
2023-01-19T18:48:47.010Z,60.82
2023-01-19T18:51:16.144Z,60.96
2023-01-19T18:53:45.382Z,61.01
2023-01-19T18:56:15.801Z,61.03
2023-01-19T18:58:44.794Z,61.00
2023-01-19T19:01:18.449Z,60.93
2023-01-19T19:03:46.320Z,61.03
2023-01-19T19:06:19.031Z,60.89
2023-01-19T19:08:48.668Z,61.03
2023-01-19T19:11:17.347Z,60.96
2023-01-19T19:13:45.767Z,60.88
2023-01-19T19:16:14.691Z,60.66
2023-01-19T19:18:42.915Z,60.64
2023-01-19T19:21:12.103Z,60.89
2023-01-19T19:23:39.948Z,60.80
2023-01-19T19:26:10.059Z,60.81
2023-01-19T19:28:39.422Z,60.91
2023-01-19T19:31:12.775Z,60.84
2023-01-19T19:33:43.391Z,60.71
2023-01-19T19:36:12.486Z,60.94
2023-01-19T19:38:42.752Z,61.02
2023-01-19T19:41:16.773Z,60.94
2023-01-19T19:43:44.544Z,60.99
2023-01-19T19:46:13.917Z,60.94
2023-01-19T19:48:41.995Z,61.24
2023-01-19T19:51:19.092Z,61.13
2023-01-19T19:53:51.030Z,60.93
2023-01-19T19:56:21.674Z,60.96
2023-01-19T19:58:51.706Z,61.00
2023-01-19T20:01:22.581Z,61.19
2023-01-19T20:03:51.454Z,61.04
2023-01-19T20:06:22.798Z,61.37
2023-01-19T20:08:55.119Z,61.38
2023-01-19T20:11:26.860Z,61.29
2023-01-19T20:13:55.026Z,61.12
2023-01-19T20:16:23.884Z,61.31
2023-01-19T20:18:55.639Z,61.44
2023-01-19T20:21:26.058Z,61.57
2023-01-19T20:23:55.578Z,61.69
2023-01-19T20:26:26.673Z,61.54
2023-01-19T20:28:59.766Z,61.59
2023-01-19T20:31:30.459Z,61.79
2023-01-19T20:34:00.454Z,61.74
2023-01-19T20:36:28.888Z,61.69
2023-01-19T20:38:57.624Z,61.68
2023-01-19T20:41:25.989Z,61.99
2023-01-19T20:43:54.306Z,62.28
2023-01-19T20:46:22.085Z,64.98
2023-01-19T20:48:52.993Z,66.99
2023-01-19T20:51:21.019Z,62.58
2023-01-19T20:53:48.996Z,54.38
2023-01-19T20:56:18.432Z,51.18
2023-01-19T20:58:46.307Z,51.68
2023-01-19T21:01:20.518Z,52.56
2023-01-19T21:03:49.049Z,53.39
2023-01-19T21:06:18.169Z,54.29
2023-01-19T21:08:46.465Z,54.45
2023-01-19T21:11:14.396Z,55.47
2023-01-19T21:13:42.348Z,56.03
2023-01-19T21:16:10.336Z,56.21
2023-01-19T21:18:38.330Z,56.88
2023-01-19T21:21:07.099Z,57.04
2023-01-19T21:23:37.103Z,57.54
2023-01-19T21:26:05.090Z,58.16
2023-01-19T21:28:33.321Z,58.56
2023-01-19T21:31:06.823Z,59.35
2023-01-19T21:33:34.884Z,59.59
2023-01-19T21:36:02.679Z,59.90
2023-01-19T21:38:30.470Z,60.26
2023-01-19T21:40:58.751Z,60.37
2023-01-19T21:43:26.692Z,60.45
2023-01-19T21:45:54.671Z,60.56
2023-01-19T21:48:22.660Z,60.81
2023-01-19T21:50:57.631Z,60.86
2023-01-19T21:53:25.420Z,60.89
2023-01-19T21:55:53.381Z,60.94
2023-01-19T21:58:23.389Z,61.12
2023-01-19T22:00:51.303Z,61.28
2023-01-19T22:03:19.153Z,61.35
2023-01-19T22:05:47.106Z,61.12
2023-01-19T22:08:14.970Z,61.05
2023-01-19T22:10:42.731Z,61.18
2023-01-19T22:13:10.526Z,61.37
2023-01-19T22:15:38.387Z,61.58
2023-01-19T22:18:06.185Z,61.18
2023-01-19T22:20:34.019Z,61.31
2023-01-19T22:23:01.795Z,61.36
2023-01-19T22:25:32.635Z,61.41
2023-01-19T22:28:00.479Z,61.64
2023-01-19T22:30:28.322Z,61.74
2023-01-19T22:32:56.239Z,61.80
2023-01-19T22:35:24.030Z,61.97
2023-01-19T22:37:51.844Z,62.08
2023-01-19T22:40:20.133Z,65.28
2023-01-19T22:42:48.484Z,69.65
2023-01-19T22:45:16.430Z,64.87
2023-01-19T22:47:44.196Z,55.20
2023-01-19T22:50:12.002Z,51.59
2023-01-19T22:52:39.762Z,52.04
2023-01-19T22:55:07.993Z,52.84
2023-01-19T22:57:36.738Z,53.42
2023-01-19T23:00:06.816Z,53.97
2023-01-19T23:02:34.637Z,54.80
2023-01-19T23:05:02.748Z,55.58
2023-01-19T23:07:30.555Z,56.19
2023-01-19T23:09:58.297Z,56.55
2023-01-19T23:12:26.088Z,57.03
2023-01-19T23:14:53.908Z,57.03
2023-01-19T23:17:21.710Z,57.51
2023-01-19T23:19:49.454Z,57.61
2023-01-19T23:22:17.199Z,58.07
2023-01-19T23:24:45.060Z,58.41
2023-01-19T23:27:12.791Z,58.69
2023-01-19T23:29:40.787Z,59.25
2023-01-19T23:32:08.502Z,59.46
2023-01-19T23:34:36.256Z,59.59
2023-01-19T23:37:04.073Z,59.98
2023-01-19T23:39:31.939Z,60.06
2023-01-19T23:41:59.651Z,60.32
2023-01-19T23:44:27.430Z,60.43
2023-01-19T23:46:55.867Z,60.67
2023-01-19T23:49:24.824Z,60.74
2023-01-19T23:51:52.648Z,60.74
2023-01-19T23:54:20.413Z,60.84
2023-01-19T23:56:48.166Z,60.99
2023-01-19T23:59:16.563Z,61.14
